createdAt,value
2019-06-08T00:00:33.485Z,0.20
2019-06-08T00:03:04.523Z,0.30
2019-06-08T00:05:35.607Z,0.50
2019-06-08T00:08:06.784Z,0.30
2019-06-08T00:10:38.920Z,0.43
2019-06-08T00:13:11.028Z,0.70
2019-06-08T00:15:42.015Z,0.30
2019-06-08T00:18:13.219Z,0.40
2019-06-08T00:20:44.429Z,0.30
2019-06-08T00:23:15.757Z,0.37
2019-06-08T00:25:46.830Z,0.50
2019-06-08T00:28:18.867Z,0.20
2019-06-08T00:30:50.138Z,0.60
2019-06-08T00:33:22.643Z,0.40
2019-06-08T00:35:53.681Z,0.43
2019-06-08T00:38:25.167Z,0.70
2019-06-08T00:40:56.169Z,0.40
2019-06-08T00:43:27.295Z,0.37
2019-06-08T00:45:58.386Z,0.42
2019-06-08T00:48:29.486Z,0.50
2019-06-08T00:51:00.524Z,0.33
2019-06-08T00:53:31.552Z,0.40
2019-06-08T00:56:02.558Z,0.70
2019-06-08T00:58:33.552Z,0.30
2019-06-08T01:01:04.672Z,0.33
2019-06-08T01:03:35.731Z,0.47
2019-06-08T01:06:06.859Z,0.67
2019-06-08T01:08:38.550Z,0.47
2019-06-08T01:11:09.695Z,0.30
2019-06-08T01:13:40.777Z,0.30
2019-06-08T01:16:12.162Z,0.30
2019-06-08T01:18:43.242Z,0.28
2019-06-08T01:21:14.246Z,0.43
2019-06-08T01:23:45.453Z,0.40
2019-06-08T01:26:16.507Z,0.47
2019-06-08T01:28:47.472Z,0.15
2019-06-08T01:31:18.474Z,0.40
2019-06-08T01:33:49.499Z,0.62
2019-06-08T01:36:20.727Z,0.40
2019-06-08T01:38:51.840Z,0.20
2019-06-08T01:41:23.265Z,0.30
2019-06-08T01:43:54.595Z,0.30
2019-06-08T01:46:25.895Z,0.70
2019-06-08T01:48:57.053Z,0.40
2019-06-08T01:51:28.587Z,0.40
2019-06-08T01:53:59.773Z,0.80
2019-06-08T01:56:31.250Z,0.47
2019-06-08T01:59:03.783Z,0.50
2019-06-08T02:01:35.337Z,0.30
2019-06-08T02:04:06.504Z,0.30
2019-06-08T02:06:38.608Z,0.30
2019-06-08T02:09:10.042Z,0.47
2019-06-08T02:11:41.061Z,0.40
2019-06-08T02:14:12.277Z,0.30
2019-06-08T02:16:43.278Z,0.40
2019-06-08T02:19:14.280Z,0.60
2019-06-08T02:21:45.281Z,0.47
2019-06-08T02:24:16.360Z,0.27
2019-06-08T02:26:47.362Z,0.40
2019-06-08T02:29:18.343Z,0.70
2019-06-08T02:31:49.419Z,0.40
2019-06-08T02:34:20.514Z,0.45
2019-06-08T02:36:51.532Z,0.20
2019-06-08T02:39:22.539Z,0.50
2019-06-08T02:41:53.550Z,0.30
2019-06-08T02:44:24.548Z,0.43
2019-06-08T02:46:55.616Z,0.30
2019-06-08T02:49:26.616Z,0.42
2019-06-08T02:51:57.932Z,0.40
2019-06-08T02:54:30.144Z,0.45
2019-06-08T02:57:04.227Z,0.40
2019-06-08T02:59:40.558Z,0.30
2019-06-08T03:02:13.322Z,0.40
2019-06-08T03:04:44.330Z,0.28
2019-06-08T03:07:18.550Z,0.53
2019-06-08T03:09:53.138Z,0.50
2019-06-08T03:12:27.451Z,0.37
2019-06-08T03:14:58.811Z,0.40
2019-06-08T03:17:31.105Z,0.40
2019-06-08T03:20:02.282Z,0.60
2019-06-08T03:22:34.311Z,0.30
2019-06-08T03:25:06.462Z,0.20
2019-06-08T03:27:39.257Z,0.40
2019-06-08T03:30:18.650Z,0.47
2019-06-08T03:32:55.815Z,0.30
2019-06-08T03:35:20.201Z,0.65
2019-06-08T03:37:51.224Z,0.40
2019-06-08T03:40:22.510Z,0.37
2019-06-08T03:42:55.387Z,0.55
2019-06-08T03:45:26.380Z,0.37
2019-06-08T03:47:57.393Z,0.40
2019-06-08T03:50:28.537Z,0.27
2019-06-08T03:53:00.147Z,0.47
2019-06-08T03:55:31.150Z,0.20
2019-06-08T03:58:02.226Z,0.60
2019-06-08T04:00:33.441Z,0.53
2019-06-08T04:03:05.397Z,0.30
2019-06-08T04:05:37.853Z,0.30
2019-06-08T04:08:09.281Z,0.50
2019-06-08T04:10:42.033Z,0.37
2019-06-08T04:13:14.039Z,0.32
2019-06-08T04:15:46.622Z,0.63
2019-06-08T04:18:17.748Z,0.30
2019-06-08T04:20:51.349Z,0.30
2019-06-08T04:23:21.772Z,0.20
2019-06-08T04:25:52.958Z,0.40
2019-06-08T04:28:24.137Z,0.55
2019-06-08T04:30:55.277Z,0.37
2019-06-08T04:33:26.272Z,0.43
2019-06-08T04:35:57.264Z,0.30
2019-06-08T04:38:28.272Z,0.40
2019-06-08T04:40:59.328Z,0.47
2019-06-08T04:43:30.317Z,0.40
2019-06-08T04:46:01.319Z,0.50
2019-06-08T04:48:32.325Z,0.40
2019-06-08T04:51:03.415Z,0.40
2019-06-08T04:53:34.421Z,0.23
2019-06-08T04:56:05.585Z,0.20
2019-06-08T04:58:36.690Z,0.53
2019-06-08T05:01:08.934Z,0.20
2019-06-08T05:03:41.360Z,0.20
2019-06-08T05:06:13.015Z,0.40
2019-06-08T05:08:45.272Z,0.23
2019-06-08T05:11:16.414Z,0.80
2019-06-08T05:13:49.680Z,0.65
2019-06-08T05:16:21.001Z,0.53
2019-06-08T05:18:52.333Z,0.78
2019-06-08T05:21:23.348Z,0.47
2019-06-08T05:23:58.727Z,0.73
2019-06-08T05:26:27.892Z,0.30
2019-06-08T05:28:58.966Z,0.83
2019-06-08T05:31:30.511Z,0.40
2019-06-08T05:34:02.558Z,1.00
2019-06-08T05:36:33.620Z,0.43
2019-06-08T05:39:06.068Z,0.47
2019-06-08T05:41:37.232Z,0.90
2019-06-08T05:44:09.386Z,1.32
2019-06-08T05:46:41.744Z,0.37
2019-06-08T05:49:13.025Z,0.63
2019-06-08T05:51:44.096Z,0.62
2019-06-08T05:54:15.188Z,0.83
2019-06-08T05:56:46.188Z,0.98
2019-06-08T05:59:17.186Z,1.40
2019-06-08T06:01:48.629Z,0.40
2019-06-08T06:04:19.725Z,0.60
2019-06-08T06:06:51.125Z,0.80
2019-06-08T06:09:22.238Z,0.40
2019-06-08T06:11:53.326Z,0.55
2019-06-08T06:14:24.339Z,0.60
2019-06-08T06:16:55.345Z,0.60
2019-06-08T06:19:26.341Z,0.60
2019-06-08T06:21:57.349Z,0.50
2019-06-08T06:24:28.416Z,0.70
2019-06-08T06:26:59.454Z,0.37
2019-06-08T06:29:30.531Z,0.40
2019-06-08T06:32:01.623Z,0.70
2019-06-08T06:34:32.689Z,0.90
2019-06-08T06:37:04.736Z,0.67
2019-06-08T06:39:35.834Z,0.80
2019-06-08T06:42:07.100Z,0.60
2019-06-08T06:44:39.339Z,0.63
2019-06-08T06:47:10.361Z,0.40
2019-06-08T06:49:42.366Z,0.60
2019-06-08T06:52:13.599Z,0.33
2019-06-08T06:54:44.772Z,0.50
2019-06-08T06:57:15.924Z,0.45
2019-06-08T06:59:47.253Z,0.50
2019-06-08T07:02:18.691Z,0.77
2019-06-08T07:04:49.979Z,0.80
2019-06-08T07:07:21.115Z,0.70
2019-06-08T07:09:52.733Z,0.57
2019-06-08T07:12:23.836Z,0.68
2019-06-08T07:14:55.518Z,0.50
2019-06-08T07:17:26.541Z,0.70
2019-06-08T07:19:58.804Z,0.50
2019-06-08T07:22:29.862Z,0.70
2019-06-08T07:25:00.879Z,0.57
2019-06-08T07:27:31.930Z,0.93
2019-06-08T07:30:03.065Z,0.83
2019-06-08T07:32:34.538Z,0.98
2019-06-08T07:35:06.040Z,0.93
2019-06-08T07:37:37.130Z,0.60
2019-06-08T07:40:09.678Z,1.10
2019-06-08T07:42:41.372Z,0.50
2019-06-08T07:45:12.609Z,0.60
2019-06-08T07:47:43.634Z,0.47
2019-06-08T07:50:14.978Z,0.40
2019-06-08T07:52:46.037Z,0.60
2019-06-08T07:55:17.448Z,0.73
2019-06-08T07:57:50.365Z,0.50
2019-06-08T08:00:22.553Z,0.60
2019-06-08T08:02:54.310Z,0.60
2019-06-08T08:05:25.337Z,0.72
2019-06-08T08:07:56.889Z,0.87
2019-06-08T08:10:28.008Z,0.53
2019-06-08T08:12:59.106Z,0.50
2019-06-08T08:15:30.114Z,0.60
2019-06-08T08:18:01.136Z,0.63
2019-06-08T08:20:32.187Z,0.93
2019-06-08T08:23:06.950Z,0.50
2019-06-08T08:25:37.891Z,0.60
2019-06-08T08:28:09.674Z,0.72
2019-06-08T08:30:40.868Z,0.87
2019-06-08T08:33:11.954Z,0.60
2019-06-08T08:35:42.938Z,0.63
2019-06-08T08:38:14.016Z,0.72
2019-06-08T08:40:45.187Z,0.95
2019-06-08T08:43:17.845Z,0.50
2019-06-08T08:45:49.704Z,0.70
2019-06-08T08:48:28.170Z,0.77
2019-06-08T08:50:54.433Z,0.40
2019-06-08T08:53:25.443Z,0.67
2019-06-08T08:55:59.669Z,0.70
2019-06-08T08:58:29.653Z,0.27
2019-06-08T09:01:03.510Z,0.80
2019-06-08T09:03:33.958Z,1.00
2019-06-08T09:06:05.143Z,0.50
2019-06-08T09:08:37.690Z,0.60
2019-06-08T09:11:09.914Z,0.60
2019-06-08T09:13:40.921Z,0.73
2019-06-08T09:16:11.913Z,0.60
2019-06-08T09:18:42.931Z,0.47
2019-06-08T09:21:14.002Z,0.72
2019-06-08T09:23:45.345Z,0.70
2019-06-08T09:26:17.747Z,0.88
2019-06-08T09:28:48.952Z,0.80
2019-06-08T09:31:19.947Z,0.73
2019-06-08T09:34:03.939Z,1.03
2019-06-08T09:36:23.735Z,0.50
2019-06-08T09:38:55.976Z,0.60
2019-06-08T09:41:30.759Z,0.75
2019-06-08T09:44:05.250Z,0.57
2019-06-08T09:46:34.045Z,0.68
2019-06-08T09:49:11.068Z,0.47
2019-06-08T09:51:38.362Z,0.57
2019-06-08T09:54:12.855Z,0.40
2019-06-08T09:56:42.979Z,0.75
2019-06-08T09:59:15.314Z,0.65
2019-06-08T10:01:46.817Z,0.73
2019-06-08T10:04:17.977Z,0.67
2019-06-08T10:06:49.006Z,0.70
2019-06-08T10:09:20.085Z,0.42
2019-06-08T10:11:51.080Z,0.70
2019-06-08T10:14:22.106Z,0.70
2019-06-08T10:16:54.150Z,0.73
2019-06-08T10:19:25.223Z,0.50
2019-06-08T10:21:56.884Z,0.67
2019-06-08T10:24:27.908Z,0.55
2019-06-08T10:26:59.389Z,0.62
2019-06-08T10:29:30.428Z,0.70
2019-06-08T10:32:01.612Z,0.50
2019-06-08T10:34:32.621Z,0.60
2019-06-08T10:37:11.835Z,0.40
2019-06-08T10:39:37.927Z,0.70
2019-06-08T10:42:11.557Z,0.40
2019-06-08T10:44:43.217Z,0.63
2019-06-08T10:47:14.225Z,0.42
2019-06-08T10:49:45.253Z,0.70
2019-06-08T10:52:20.154Z,0.50
2019-06-08T10:54:49.312Z,0.67
2019-06-08T10:57:20.360Z,0.50
2019-06-08T10:59:51.451Z,0.47
2019-06-08T11:02:23.748Z,0.73
2019-06-08T11:04:54.751Z,0.60
2019-06-08T11:07:27.963Z,0.62
2019-06-08T11:10:00.242Z,0.80
2019-06-08T11:12:31.543Z,0.80
2019-06-08T11:15:03.589Z,0.40
2019-06-08T11:17:37.757Z,0.70
2019-06-08T11:20:13.066Z,0.77
2019-06-08T11:22:41.129Z,0.57
2019-06-08T11:25:15.914Z,0.50
2019-06-08T11:27:47.505Z,0.67
2019-06-08T11:30:26.269Z,0.60
2019-06-08T11:32:52.501Z,0.53
2019-06-08T11:35:23.612Z,0.87
2019-06-08T11:37:54.638Z,0.50
2019-06-08T11:40:27.833Z,0.50
2019-06-08T11:43:00.286Z,0.65
2019-06-08T11:45:31.537Z,0.60
2019-06-08T11:48:02.810Z,0.80
2019-06-08T11:50:41.451Z,0.40
2019-06-08T11:53:14.286Z,0.60
2019-06-08T11:55:45.148Z,0.85
2019-06-08T11:58:22.126Z,0.62
2019-06-08T12:01:09.981Z,0.70
2019-06-08T12:03:40.294Z,0.43
2019-06-08T12:06:14.144Z,0.43
2019-06-08T12:08:44.116Z,0.47
2019-06-08T12:11:18.200Z,0.60
2019-06-08T12:13:48.196Z,0.55
2019-06-08T12:16:22.202Z,0.50
2019-06-08T12:18:51.943Z,0.60
2019-06-08T12:21:22.966Z,0.70
2019-06-08T12:23:54.299Z,0.65
2019-06-08T12:26:25.303Z,0.50
2019-06-08T12:28:57.988Z,0.82
2019-06-08T12:31:29.105Z,0.70
2019-06-08T12:34:00.445Z,0.40
2019-06-08T12:36:32.507Z,0.70
2019-06-08T12:39:05.897Z,0.70
2019-06-08T12:41:37.721Z,0.60
2019-06-08T12:44:10.377Z,0.40
2019-06-08T12:46:41.766Z,0.60
2019-06-08T12:49:14.291Z,0.70
2019-06-08T12:51:45.815Z,0.70
2019-06-08T12:54:19.458Z,0.40
2019-06-08T12:56:49.776Z,0.53
2019-06-08T12:59:22.915Z,0.50
2019-06-08T13:01:53.770Z,0.50
2019-06-08T13:04:25.782Z,0.42
2019-06-08T13:06:58.448Z,0.50
2019-06-08T13:09:30.013Z,0.60
2019-06-08T13:12:01.111Z,0.47
2019-06-08T13:14:32.141Z,0.47
2019-06-08T13:17:03.195Z,0.60
2019-06-08T13:19:34.295Z,0.60
2019-06-08T13:22:05.452Z,0.97
2019-06-08T13:24:37.613Z,0.50
2019-06-08T13:27:12.017Z,0.60
2019-06-08T13:29:41.628Z,0.43
2019-06-08T13:32:13.806Z,0.40
2019-06-08T13:34:47.289Z,0.47
2019-06-08T13:37:19.370Z,0.70
2019-06-08T13:39:51.559Z,0.60
2019-06-08T13:42:23.215Z,0.62
2019-06-08T13:44:54.285Z,0.50
2019-06-08T13:47:25.304Z,0.23
2019-06-08T13:49:56.365Z,0.68
2019-06-08T13:52:28.181Z,0.43
2019-06-08T13:55:00.339Z,0.50
2019-06-08T13:57:31.432Z,0.30
2019-06-08T14:00:02.602Z,0.37
2019-06-08T14:02:34.706Z,0.42
2019-06-08T14:05:08.175Z,0.30
2019-06-08T14:07:39.263Z,0.40
2019-06-08T14:10:10.960Z,0.40
2019-06-08T14:12:42.221Z,0.63
2019-06-08T14:15:13.524Z,0.50
2019-06-08T14:17:44.541Z,0.50
2019-06-08T14:20:24.200Z,0.62
2019-06-08T14:22:54.485Z,0.45
2019-06-08T14:25:28.197Z,0.40
2019-06-08T14:27:58.528Z,0.50
2019-06-08T14:30:33.089Z,0.60
2019-06-08T14:33:02.479Z,0.53
2019-06-08T14:35:33.791Z,0.60
2019-06-08T14:38:04.785Z,0.60
2019-06-08T14:40:37.618Z,0.47
2019-06-08T14:43:10.746Z,0.60
2019-06-08T14:45:41.832Z,0.60
2019-06-08T14:48:12.925Z,0.50
2019-06-08T14:50:43.966Z,0.80
2019-06-08T14:53:18.442Z,0.90
2019-06-08T14:55:52.700Z,0.50
2019-06-08T14:58:24.100Z,0.60
2019-06-08T15:00:54.161Z,0.60
2019-06-08T15:03:25.274Z,0.80
2019-06-08T15:05:57.736Z,0.90
2019-06-08T15:08:31.119Z,0.60
2019-06-08T15:11:01.700Z,0.60
2019-06-08T15:13:32.717Z,1.13
2019-06-08T15:16:03.799Z,0.77
2019-06-08T15:18:34.807Z,0.72
2019-06-08T15:21:07.881Z,0.70
2019-06-08T15:23:38.660Z,0.43
2019-06-08T15:26:23.228Z,1.00
2019-06-08T15:28:43.718Z,0.70
2019-06-08T15:31:14.723Z,0.80
2019-06-08T15:33:48.085Z,0.90
2019-06-08T15:36:20.854Z,0.72
2019-06-08T15:38:51.291Z,0.90
2019-06-08T15:41:23.294Z,0.70
2019-06-08T15:43:57.511Z,0.40
2019-06-08T15:46:28.327Z,0.57
2019-06-08T15:48:59.322Z,0.53
2019-06-08T15:51:33.806Z,0.60
2019-06-08T15:54:03.279Z,0.50
2019-06-08T15:56:45.800Z,1.00
2019-06-08T15:59:09.241Z,0.83
2019-06-08T16:01:39.927Z,0.80
2019-06-08T16:04:11.030Z,1.10
2019-06-08T16:06:42.096Z,0.70
2019-06-08T16:09:13.138Z,0.70
2019-06-08T16:11:44.155Z,0.50
2019-06-08T16:14:15.146Z,0.80
2019-06-08T16:16:47.434Z,0.70
2019-06-08T16:19:18.430Z,0.70
2019-06-08T16:21:49.440Z,0.83
2019-06-08T16:24:20.442Z,0.60
2019-06-08T16:26:53.591Z,0.90
2019-06-08T16:29:24.178Z,0.80
2019-06-08T16:31:55.187Z,0.60
2019-06-08T16:34:27.252Z,0.50
2019-06-08T16:36:58.580Z,0.70
2019-06-08T16:39:30.866Z,0.65
2019-06-08T16:42:02.288Z,0.60
2019-06-08T16:44:34.282Z,0.50
2019-06-08T16:47:05.538Z,0.53
2019-06-08T16:49:36.542Z,0.50
2019-06-08T16:52:07.548Z,0.90
2019-06-08T16:54:39.016Z,0.93
2019-06-08T16:57:11.370Z,0.70
2019-06-08T16:59:42.421Z,1.00
2019-06-08T17:02:16.776Z,1.00
2019-06-08T17:04:46.130Z,1.40
2019-06-08T17:07:17.737Z,0.90
2019-06-08T17:09:48.736Z,1.00
2019-06-08T17:12:19.738Z,1.65
2019-06-08T17:14:50.848Z,0.70
2019-06-08T17:17:21.904Z,0.57
2019-06-08T17:19:52.906Z,1.37
2019-06-08T17:22:23.903Z,0.67
2019-06-08T17:24:54.976Z,0.60
2019-06-08T17:27:27.196Z,0.60
2019-06-08T17:29:58.482Z,0.90
2019-06-08T17:32:29.553Z,0.77
2019-06-08T17:35:00.882Z,0.93
2019-06-08T17:37:31.872Z,0.80
2019-06-08T17:40:03.032Z,0.80
2019-06-08T17:42:34.785Z,0.60
2019-06-08T17:45:06.605Z,0.80
2019-06-08T17:47:38.547Z,1.10
2019-06-08T17:50:10.567Z,1.00
2019-06-08T17:52:42.941Z,1.13
2019-06-08T17:55:14.143Z,1.20
2019-06-08T17:57:53.233Z,1.47
2019-06-08T18:00:18.185Z,1.07
2019-06-08T18:02:49.254Z,0.70
2019-06-08T18:05:20.389Z,0.70
2019-06-08T18:07:51.533Z,0.63
2019-06-08T18:10:22.634Z,0.47
2019-06-08T18:12:53.782Z,0.82
2019-06-08T18:15:24.780Z,0.82
2019-06-08T18:17:57.698Z,1.15
2019-06-08T18:20:28.520Z,0.80
2019-06-08T18:22:59.542Z,1.47
2019-06-08T18:25:30.615Z,0.80
2019-06-08T18:28:09.156Z,1.27
2019-06-08T18:30:34.630Z,1.12
2019-06-08T18:33:07.454Z,1.27
2019-06-08T18:35:41.223Z,1.00
2019-06-08T18:38:11.706Z,1.07
2019-06-08T18:40:43.435Z,1.00
2019-06-08T18:43:16.926Z,0.70
2019-06-08T18:45:50.413Z,0.95
2019-06-08T18:48:21.440Z,0.80
2019-06-08T18:50:52.479Z,0.78
2019-06-08T18:53:23.553Z,0.50
2019-06-08T18:55:54.585Z,0.70
2019-06-08T18:58:27.799Z,0.70
2019-06-08T19:00:58.424Z,0.93
2019-06-08T19:03:29.515Z,7.77
2019-06-08T19:06:01.074Z,6.77
2019-06-08T19:08:32.399Z,2.77
2019-06-08T19:11:03.526Z,2.13
2019-06-08T19:13:34.927Z,2.00
2019-06-08T19:16:07.579Z,2.10
2019-06-08T19:18:43.631Z,1.10
2019-06-08T19:21:11.675Z,1.10
2019-06-08T19:23:43.713Z,1.23
2019-06-08T19:26:17.201Z,2.43
2019-06-08T19:28:53.781Z,2.40
2019-06-08T19:31:21.227Z,1.65
2019-06-08T19:33:53.407Z,1.62
2019-06-08T19:36:24.745Z,1.25
2019-06-08T19:38:57.727Z,1.13
2019-06-08T19:41:29.766Z,0.80
2019-06-08T19:44:00.788Z,0.70
2019-06-08T19:46:31.780Z,1.07
2019-06-08T19:49:02.805Z,1.17
2019-06-08T19:51:33.881Z,0.98
2019-06-08T19:54:07.100Z,1.03
2019-06-08T19:56:39.003Z,1.30
2019-06-08T19:59:11.866Z,1.10
2019-06-08T20:01:43.826Z,2.63
2019-06-08T20:04:15.135Z,6.80
2019-06-08T20:06:48.009Z,5.10
2019-06-08T20:09:18.868Z,6.07
2019-06-08T20:11:56.493Z,5.50
2019-06-08T20:14:22.551Z,7.87
2019-06-08T20:16:53.543Z,17.80
2019-06-08T20:19:24.575Z,14.73
2019-06-08T20:21:58.267Z,13.17
2019-06-08T20:24:29.542Z,11.97
2019-06-08T20:27:00.607Z,6.43
2019-06-08T20:29:31.918Z,2.83
2019-06-08T20:32:02.919Z,1.90
2019-06-08T20:34:34.019Z,1.62
2019-06-08T20:37:05.028Z,0.90
2019-06-08T20:39:38.201Z,1.10
2019-06-08T20:42:12.028Z,0.80
2019-06-08T20:44:42.569Z,0.80
2019-06-08T20:47:13.631Z,1.30
2019-06-08T20:49:44.700Z,1.67
2019-06-08T20:52:17.634Z,2.63
2019-06-08T20:54:50.476Z,2.73
2019-06-08T20:57:21.168Z,2.90
2019-06-08T20:59:53.578Z,5.00
2019-06-08T21:02:28.422Z,4.50
2019-06-08T21:04:59.512Z,3.80
2019-06-08T21:07:30.741Z,3.47
2019-06-08T21:10:01.745Z,3.60
2019-06-08T21:12:32.768Z,2.40
2019-06-08T21:15:03.849Z,1.87
2019-06-08T21:17:34.939Z,1.70
2019-06-08T21:20:08.404Z,1.27
2019-06-08T21:22:38.885Z,1.60
2019-06-08T21:25:09.931Z,1.33
2019-06-08T21:27:40.932Z,1.53
2019-06-08T21:30:20.329Z,2.30
2019-06-08T21:32:47.634Z,2.30
2019-06-08T21:35:18.540Z,1.98
2019-06-08T21:37:51.439Z,2.35
2019-06-08T21:40:22.393Z,1.97
2019-06-08T21:42:55.251Z,1.80
2019-06-08T21:45:27.593Z,1.80
2019-06-08T21:48:00.379Z,1.87
2019-06-08T21:50:31.647Z,2.52
2019-06-08T21:53:02.643Z,2.10
2019-06-08T21:55:33.641Z,1.77
2019-06-08T21:58:04.641Z,2.10
2019-06-08T22:00:43.043Z,1.40
2019-06-08T22:03:12.685Z,1.30
2019-06-08T22:05:43.842Z,0.90
2019-06-08T22:08:17.237Z,1.30
2019-06-08T22:10:51.027Z,1.10
2019-06-08T22:13:21.554Z,1.10
2019-06-08T22:15:53.243Z,1.20
2019-06-08T22:18:24.274Z,1.63
2019-06-08T22:20:59.520Z,1.87
2019-06-08T22:23:29.142Z,2.10
2019-06-08T22:26:01.160Z,2.27
2019-06-08T22:28:32.300Z,2.17
2019-06-08T22:31:03.863Z,1.30
2019-06-08T22:33:37.556Z,1.10
2019-06-08T22:36:09.137Z,1.00
2019-06-08T22:38:40.561Z,1.00
2019-06-08T22:41:12.577Z,1.12
2019-06-08T22:43:43.564Z,1.20
2019-06-08T22:46:14.588Z,1.10
2019-06-08T22:48:47.606Z,1.37
2019-06-08T22:51:18.917Z,1.02
2019-06-08T22:53:49.892Z,1.17
2019-06-08T22:56:20.906Z,1.10
2019-06-08T22:58:54.242Z,1.10
2019-06-08T23:01:24.687Z,1.10
2019-06-08T23:03:57.019Z,0.98
2019-06-08T23:06:28.407Z,0.90
2019-06-08T23:09:01.436Z,0.90
2019-06-08T23:11:32.572Z,1.20
2019-06-08T23:14:05.394Z,1.00
2019-06-08T23:16:36.343Z,1.00
2019-06-08T23:19:08.014Z,1.10
2019-06-08T23:21:39.184Z,0.93
2019-06-08T23:24:10.271Z,0.83
2019-06-08T23:26:41.284Z,0.87
2019-06-08T23:29:12.677Z,1.33
2019-06-08T23:31:43.679Z,1.10
2019-06-08T23:34:14.809Z,1.40
2019-06-08T23:36:55.349Z,2.00
2019-06-08T23:39:18.906Z,2.37
2019-06-08T23:41:49.888Z,1.93
2019-06-08T23:44:20.881Z,2.37
2019-06-08T23:46:51.877Z,2.07
2019-06-08T23:49:22.944Z,1.87
2019-06-08T23:51:55.347Z,1.90
2019-06-08T23:54:28.008Z,1.60
2019-06-08T23:57:00.094Z,1.30
2019-06-08T23:59:32.315Z,1.27
